Urb Venus Gdns Norte, Puerto Rico
Current Conditions -  °F | °C
As of 2:56 PM on Saturday 20 Dec 2014 (Local Time) from TJSJ Reporting Station
Scattered Clouds Scattered Clouds  
Wind Chill: 84°   Ceiling: Unl
Heat Index: 89°   Visibility: 10mi
Dew Point: 71°   Wind: 13mph
Humidity: 65%   Direction: 50°NE
Pressure: 29.98"   Gusts: NA
Location:  18.3754°N, 66.0577°W
Report Text: TJSJ 201856Z 05011KT 10SM FEW028 SCT070 29/22 A2998 RMK AO2 SLP150 T02890217
Loading
Personal Weather Stations






























Interactive Weather Map New forecast layout! Learn more

10-Day Weather Forecast

Advertisements
Track Severe Weather on mobile